sensor_id;sensor_type;location;lat;lon;timestamp;P1;durP1;ratioP1;P2;durP2;ratioP2
32250;SDS011;41295;48.518;9.206;2023-08-24T00:01:16;11.18;;;6.03;;
32250;SDS011;41295;48.518;9.206;2023-08-24T00:03:18;7.90;;;5.43;;
32250;SDS011;41295;48.518;9.206;2023-08-24T00:05:22;9.68;;;5.20;;
32250;SDS011;41295;48.518;9.206;2023-08-24T00:07:25;8.73;;;5.20;;
32250;SDS011;41295;48.518;9.206;2023-08-24T00:09:28;6.53;;;5.10;;
32250;SDS011;41295;48.518;9.206;2023-08-24T00:11:32;16.70;;;5.75;;
32250;SDS011;41295;48.518;9.206;2023-08-24T00:13:35;11.02;;;4.85;;
32250;SDS011;41295;48.518;9.206;2023-08-24T00:15:37;6.75;;;4.88;;
32250;SDS011;41295;48.518;9.206;2023-08-24T00:17:40;7.20;;;5.10;;
32250;SDS011;41295;48.518;9.206;2023-08-24T00:19:43;7.38;;;5.18;;
32250;SDS011;41295;48.518;9.206;2023-08-24T00:21:45;6.50;;;5.10;;
32250;SDS011;41295;48.518;9.206;2023-08-24T00:23:49;10.18;;;4.90;;
32250;SDS011;41295;48.518;9.206;2023-08-24T00:25:53;7.88;;;5.40;;
32250;SDS011;41295;48.518;9.206;2023-08-24T00:27:57;7.97;;;5.47;;
32250;SDS011;41295;48.518;9.206;2023-08-24T00:30:01;7.22;;;5.03;;
32250;SDS011;41295;48.518;9.206;2023-08-24T00:32:05;11.93;;;5.03;;
32250;SDS011;41295;48.518;9.206;2023-08-24T00:34:09;9.52;;;5.28;;
32250;SDS011;41295;48.518;9.206;2023-08-24T00:36:12;7.80;;;5.00;;
32250;SDS011;41295;48.518;9.206;2023-08-24T00:38:13;6.68;;;4.70;;
32250;SDS011;41295;48.518;9.206;2023-08-24T00:40:16;8.68;;;4.82;;
32250;SDS011;41295;48.518;9.206;2023-08-24T00:42:19;7.63;;;5.15;;
32250;SDS011;41295;48.518;9.206;2023-08-24T00:44:25;8.00;;;5.00;;
32250;SDS011;41295;48.518;9.206;2023-08-24T00:46:27;12.02;;;5.50;;
32250;SDS011;41295;48.518;9.206;2023-08-24T00:48:30;6.20;;;5.40;;
32250;SDS011;41295;48.518;9.206;2023-08-24T00:50:34;7.28;;;5.20;;
32250;SDS011;41295;48.518;9.206;2023-08-24T00:52:37;8.15;;;5.45;;
32250;SDS011;41295;48.518;9.206;2023-08-24T00:54:42;8.65;;;5.47;;
32250;SDS011;41295;48.518;9.206;2023-08-24T00:56:45;12.57;;;5.88;;
32250;SDS011;41295;48.518;9.206;2023-08-24T00:58:47;8.45;;;5.70;;
32250;SDS011;41295;48.518;9.206;2023-08-24T01:00:52;7.65;;;5.47;;
32250;SDS011;41295;48.518;9.206;2023-08-24T01:02:55;8.45;;;5.43;;
32250;SDS011;41295;48.518;9.206;2023-08-24T01:04:58;9.50;;;5.57;;
32250;SDS011;41295;48.518;9.206;2023-08-24T01:06:59;13.23;;;5.60;;
32250;SDS011;41295;48.518;9.206;2023-08-24T01:09:02;9.48;;;5.40;;
32250;SDS011;41295;48.518;9.206;2023-08-24T01:11:09;11.20;;;5.40;;
32250;SDS011;41295;48.518;9.206;2023-08-24T01:13:18;10.02;;;5.95;;
32250;SDS011;41295;48.518;9.206;2023-08-24T01:15:29;6.97;;;5.82;;
32250;SDS011;41295;48.518;9.206;2023-08-24T01:17:42;7.63;;;6.20;;
32250;SDS011;41295;48.518;9.206;2023-08-24T01:19:46;9.23;;;6.28;;
32250;SDS011;41295;48.518;9.206;2023-08-24T01:21:48;10.50;;;5.95;;
32250;SDS011;41295;48.518;9.206;2023-08-24T01:23:53;10.23;;;6.57;;
32250;SDS011;41295;48.518;9.206;2023-08-24T01:26:08;8.85;;;6.18;;
32250;SDS011;41295;48.518;9.206;2023-08-24T01:28:13;10.63;;;6.53;;
32250;SDS011;41295;48.518;9.206;2023-08-24T01:30:17;10.77;;;6.45;;
32250;SDS011;41295;48.518;9.206;2023-08-24T01:32:21;9.38;;;5.85;;
32250;SDS011;41295;48.518;9.206;2023-08-24T01:34:23;9.25;;;6.03;;
32250;SDS011;41295;48.518;9.206;2023-08-24T01:36:26;8.77;;;6.05;;
32250;SDS011;41295;48.518;9.206;2023-08-24T01:38:29;9.88;;;5.63;;
32250;SDS011;41295;48.518;9.206;2023-08-24T01:40:34;6.95;;;5.20;;
32250;SDS011;41295;48.518;9.206;2023-08-24T01:42:45;8.30;;;5.85;;
32250;SDS011;41295;48.518;9.206;2023-08-24T01:44:54;11.35;;;5.88;;
32250;SDS011;41295;48.518;9.206;2023-08-24T01:46:59;10.93;;;6.10;;
32250;SDS011;41295;48.518;9.206;2023-08-24T01:49:06;8.90;;;5.47;;
32250;SDS011;41295;48.518;9.206;2023-08-24T01:51:11;8.90;;;5.70;;
32250;SDS011;41295;48.518;9.206;2023-08-24T01:53:14;6.82;;;5.60;;
32250;SDS011;41295;48.518;9.206;2023-08-24T01:55:17;10.10;;;5.90;;
32250;SDS011;41295;48.518;9.206;2023-08-24T01:57:20;9.55;;;6.03;;
32250;SDS011;41295;48.518;9.206;2023-08-24T01:59:24;13.02;;;6.45;;
32250;SDS011;41295;48.518;9.206;2023-08-24T02:01:27;8.85;;;6.18;;
32250;SDS011;41295;48.518;9.206;2023-08-24T02:03:30;9.60;;;5.78;;
32250;SDS011;41295;48.518;9.206;2023-08-24T02:05:32;10.68;;;5.57;;
32250;SDS011;41295;48.518;9.206;2023-08-24T02:07:35;8.23;;;5.90;;
32250;SDS011;41295;48.518;9.206;2023-08-24T02:09:38;9.90;;;5.80;;
32250;SDS011;41295;48.518;9.206;2023-08-24T02:11:40;9.60;;;5.72;;
32250;SDS011;41295;48.518;9.206;2023-08-24T02:13:43;10.65;;;5.72;;
32250;SDS011;41295;48.518;9.206;2023-08-24T02:15:47;8.50;;;5.88;;
32250;SDS011;41295;48.518;9.206;2023-08-24T02:17:50;8.75;;;5.70;;
32250;SDS011;41295;48.518;9.206;2023-08-24T02:19:54;15.63;;;6.10;;
32250;SDS011;41295;48.518;9.206;2023-08-24T02:21:57;6.75;;;5.95;;
32250;SDS011;41295;48.518;9.206;2023-08-24T02:24:00;11.15;;;6.22;;
32250;SDS011;41295;48.518;9.206;2023-08-24T02:26:02;13.13;;;6.90;;
32250;SDS011;41295;48.518;9.206;2023-08-24T02:28:04;9.30;;;6.28;;
32250;SDS011;41295;48.518;9.206;2023-08-24T02:30:07;7.43;;;6.22;;
32250;SDS011;41295;48.518;9.206;2023-08-24T02:32:10;9.90;;;6.15;;
32250;SDS011;41295;48.518;9.206;2023-08-24T02:34:13;9.73;;;6.30;;
32250;SDS011;41295;48.518;9.206;2023-08-24T02:36:16;8.40;;;6.13;;
32250;SDS011;41295;48.518;9.206;2023-08-24T02:38:19;10.77;;;6.75;;
32250;SDS011;41295;48.518;9.206;2023-08-24T02:40:21;8.20;;;6.80;;
32250;SDS011;41295;48.518;9.206;2023-08-24T02:42:24;8.48;;;6.82;;
32250;SDS011;41295;48.518;9.206;2023-08-24T02:44:28;11.73;;;6.10;;
32250;SDS011;41295;48.518;9.206;2023-08-24T02:46:30;7.70;;;6.15;;
32250;SDS011;41295;48.518;9.206;2023-08-24T02:48:34;10.27;;;6.28;;
32250;SDS011;41295;48.518;9.206;2023-08-24T02:50:37;10.32;;;6.63;;
32250;SDS011;41295;48.518;9.206;2023-08-24T02:52:39;10.60;;;6.72;;
32250;SDS011;41295;48.518;9.206;2023-08-24T02:54:42;11.75;;;6.32;;
32250;SDS011;41295;48.518;9.206;2023-08-24T02:56:45;7.97;;;6.00;;
32250;SDS011;41295;48.518;9.206;2023-08-24T02:58:47;8.73;;;6.60;;
32250;SDS011;41295;48.518;9.206;2023-08-24T03:00:51;10.45;;;6.45;;
32250;SDS011;41295;48.518;9.206;2023-08-24T03:02:53;8.52;;;6.45;;
32250;SDS011;41295;48.518;9.206;2023-08-24T03:04:57;11.63;;;6.15;;
32250;SDS011;41295;48.518;9.206;2023-08-24T03:07:00;8.93;;;6.47;;
32250;SDS011;41295;48.518;9.206;2023-08-24T03:09:03;8.70;;;6.07;;
32250;SDS011;41295;48.518;9.206;2023-08-24T03:11:06;13.88;;;7.32;;
32250;SDS011;41295;48.518;9.206;2023-08-24T03:13:08;11.90;;;6.43;;
32250;SDS011;41295;48.518;9.206;2023-08-24T03:15:10;10.18;;;6.25;;
32250;SDS011;41295;48.518;9.206;2023-08-24T03:17:13;8.73;;;5.90;;
32250;SDS011;41295;48.518;9.206;2023-08-24T03:19:16;10.00;;;6.50;;
32250;SDS011;41295;48.518;9.206;2023-08-24T03:21:20;10.70;;;6.57;;
32250;SDS011;41295;48.518;9.206;2023-08-24T03:23:23;7.90;;;6.60;;
32250;SDS011;41295;48.518;9.206;2023-08-24T03:25:25;7.80;;;6.47;;
32250;SDS011;41295;48.518;9.206;2023-08-24T03:27:27;11.85;;;6.60;;
32250;SDS011;41295;48.518;9.206;2023-08-24T03:29:30;13.98;;;6.88;;
32250;SDS011;41295;48.518;9.206;2023-08-24T03:31:33;12.70;;;6.43;;
32250;SDS011;41295;48.518;9.206;2023-08-24T03:33:34;13.25;;;6.95;;
32250;SDS011;41295;48.518;9.206;2023-08-24T03:35:37;12.18;;;6.88;;
32250;SDS011;41295;48.518;9.206;2023-08-24T03:37:41;9.02;;;6.47;;
32250;SDS011;41295;48.518;9.206;2023-08-24T03:39:43;10.02;;;6.63;;
32250;SDS011;41295;48.518;9.206;2023-08-24T03:41:46;9.82;;;7.03;;
32250;SDS011;41295;48.518;9.206;2023-08-24T03:43:48;7.82;;;6.00;;
32250;SDS011;41295;48.518;9.206;2023-08-24T03:45:51;9.15;;;6.50;;
32250;SDS011;41295;48.518;9.206;2023-08-24T03:47:54;11.93;;;6.82;;
32250;SDS011;41295;48.518;9.206;2023-08-24T03:49:57;7.85;;;6.72;;
32250;SDS011;41295;48.518;9.206;2023-08-24T03:52:00;13.77;;;7.10;;
32250;SDS011;41295;48.518;9.206;2023-08-24T03:54:05;11.98;;;6.30;;
32250;SDS011;41295;48.518;9.206;2023-08-24T03:56:08;9.48;;;6.90;;
32250;SDS011;41295;48.518;9.206;2023-08-24T03:58:11;10.48;;;6.75;;
32250;SDS011;41295;48.518;9.206;2023-08-24T04:00:14;11.13;;;6.75;;
32250;SDS011;41295;48.518;9.206;2023-08-24T04:02:18;11.27;;;7.60;;
32250;SDS011;41295;48.518;9.206;2023-08-24T04:04:21;8.73;;;6.78;;
32250;SDS011;41295;48.518;9.206;2023-08-24T04:06:23;13.90;;;7.20;;
32250;SDS011;41295;48.518;9.206;2023-08-24T04:08:26;11.52;;;6.82;;
32250;SDS011;41295;48.518;9.206;2023-08-24T04:10:30;11.48;;;7.35;;
32250;SDS011;41295;48.518;9.206;2023-08-24T04:12:33;11.00;;;6.45;;
32250;SDS011;41295;48.518;9.206;2023-08-24T04:14:36;15.82;;;6.90;;
32250;SDS011;41295;48.518;9.206;2023-08-24T04:16:38;9.80;;;6.70;;
32250;SDS011;41295;48.518;9.206;2023-08-24T04:18:40;11.95;;;7.03;;
32250;SDS011;41295;48.518;9.206;2023-08-24T04:20:43;11.95;;;7.07;;
32250;SDS011;41295;48.518;9.206;2023-08-24T04:22:44;8.73;;;6.68;;
32250;SDS011;41295;48.518;9.206;2023-08-24T04:24:47;11.20;;;7.53;;
32250;SDS011;41295;48.518;9.206;2023-08-24T04:26:51;10.93;;;6.60;;
32250;SDS011;41295;48.518;9.206;2023-08-24T04:28:54;12.95;;;6.80;;
32250;SDS011;41295;48.518;9.206;2023-08-24T04:30:56;11.85;;;6.82;;
32250;SDS011;41295;48.518;9.206;2023-08-24T04:32:59;8.98;;;6.05;;
32250;SDS011;41295;48.518;9.206;2023-08-24T04:35:04;10.23;;;6.75;;
32250;SDS011;41295;48.518;9.206;2023-08-24T04:37:07;10.27;;;7.13;;
32250;SDS011;41295;48.518;9.206;2023-08-24T04:39:10;8.70;;;6.93;;
32250;SDS011;41295;48.518;9.206;2023-08-24T04:41:12;10.82;;;7.07;;
32250;SDS011;41295;48.518;9.206;2023-08-24T04:43:16;9.00;;;6.55;;
32250;SDS011;41295;48.518;9.206;2023-08-24T04:45:19;10.02;;;7.10;;
32250;SDS011;41295;48.518;9.206;2023-08-24T04:47:21;9.23;;;7.00;;
32250;SDS011;41295;48.518;9.206;2023-08-24T04:49:24;9.48;;;7.20;;
32250;SDS011;41295;48.518;9.206;2023-08-24T04:51:26;11.38;;;7.20;;
32250;SDS011;41295;48.518;9.206;2023-08-24T04:53:30;8.60;;;6.85;;
32250;SDS011;41295;48.518;9.206;2023-08-24T04:55:33;13.75;;;7.63;;
32250;SDS011;41295;48.518;9.206;2023-08-24T04:57:34;10.18;;;7.47;;
32250;SDS011;41295;48.518;9.206;2023-08-24T04:59:38;11.70;;;6.95;;
32250;SDS011;41295;48.518;9.206;2023-08-24T05:01:41;12.02;;;6.97;;
32250;SDS011;41295;48.518;9.206;2023-08-24T05:03:44;11.95;;;6.68;;
32250;SDS011;41295;48.518;9.206;2023-08-24T05:05:46;11.43;;;7.13;;
32250;SDS011;41295;48.518;9.206;2023-08-24T05:07:49;7.80;;;6.47;;
32250;SDS011;41295;48.518;9.206;2023-08-24T05:09:53;12.55;;;7.13;;
32250;SDS011;41295;48.518;9.206;2023-08-24T05:11:56;11.38;;;7.18;;
32250;SDS011;41295;48.518;9.206;2023-08-24T05:13:58;10.77;;;6.95;;
32250;SDS011;41295;48.518;9.206;2023-08-24T05:16:02;12.80;;;7.43;;
32250;SDS011;41295;48.518;9.206;2023-08-24T05:18:05;14.10;;;7.00;;
32250;SDS011;41295;48.518;9.206;2023-08-24T05:20:08;15.77;;;7.43;;
32250;SDS011;41295;48.518;9.206;2023-08-24T05:22:12;9.10;;;7.03;;
32250;SDS011;41295;48.518;9.206;2023-08-24T05:24:14;14.38;;;7.50;;
32250;SDS011;41295;48.518;9.206;2023-08-24T05:26:17;8.82;;;7.53;;
32250;SDS011;41295;48.518;9.206;2023-08-24T05:28:23;10.57;;;6.95;;
32250;SDS011;41295;48.518;9.206;2023-08-24T05:30:26;10.35;;;7.10;;
32250;SDS011;41295;48.518;9.206;2023-08-24T05:32:32;17.55;;;7.68;;
32250;SDS011;41295;48.518;9.206;2023-08-24T05:34:35;17.58;;;7.20;;
32250;SDS011;41295;48.518;9.206;2023-08-24T05:36:38;11.27;;;7.43;;
32250;SDS011;41295;48.518;9.206;2023-08-24T05:38:41;13.43;;;7.00;;
32250;SDS011;41295;48.518;9.206;2023-08-24T05:41:05;11.85;;;7.60;;
32250;SDS011;41295;48.518;9.206;2023-08-24T05:43:08;9.50;;;7.57;;
32250;SDS011;41295;48.518;9.206;2023-08-24T05:45:10;12.05;;;7.32;;
32250;SDS011;41295;48.518;9.206;2023-08-24T05:47:14;11.15;;;8.02;;
32250;SDS011;41295;48.518;9.206;2023-08-24T05:49:18;13.65;;;7.22;;
32250;SDS011;41295;48.518;9.206;2023-08-24T05:51:20;11.77;;;7.43;;
32250;SDS011;41295;48.518;9.206;2023-08-24T05:53:23;11.98;;;7.75;;
32250;SDS011;41295;48.518;9.206;2023-08-24T05:55:26;15.45;;;7.63;;
32250;SDS011;41295;48.518;9.206;2023-08-24T05:57:28;10.02;;;6.85;;
32250;SDS011;41295;48.518;9.206;2023-08-24T05:59:31;10.73;;;7.05;;
32250;SDS011;41295;48.518;9.206;2023-08-24T06:01:35;11.73;;;6.90;;
32250;SDS011;41295;48.518;9.206;2023-08-24T06:03:39;9.13;;;6.75;;
32250;SDS011;41295;48.518;9.206;2023-08-24T06:05:43;9.68;;;6.93;;
32250;SDS011;41295;48.518;9.206;2023-08-24T06:07:46;13.10;;;7.10;;
32250;SDS011;41295;48.518;9.206;2023-08-24T06:09:51;16.60;;;7.70;;
32250;SDS011;41295;48.518;9.206;2023-08-24T06:11:54;12.13;;;6.90;;
32250;SDS011;41295;48.518;9.206;2023-08-24T06:13:56;12.02;;;7.60;;
32250;SDS011;41295;48.518;9.206;2023-08-24T06:15:59;15.35;;;9.05;;
32250;SDS011;41295;48.518;9.206;2023-08-24T06:18:03;12.60;;;8.30;;
32250;SDS011;41295;48.518;9.206;2023-08-24T06:20:07;14.55;;;9.15;;
32250;SDS011;41295;48.518;9.206;2023-08-24T06:22:13;16.42;;;8.18;;
32250;SDS011;41295;48.518;9.206;2023-08-24T06:24:16;24.33;;;8.45;;
32250;SDS011;41295;48.518;9.206;2023-08-24T06:26:18;9.63;;;7.20;;
32250;SDS011;41295;48.518;9.206;2023-08-24T06:28:21;13.52;;;8.35;;
32250;SDS011;41295;48.518;9.206;2023-08-24T06:30:24;14.02;;;8.48;;
32250;SDS011;41295;48.518;9.206;2023-08-24T06:32:26;14.70;;;8.52;;
32250;SDS011;41295;48.518;9.206;2023-08-24T06:34:29;12.15;;;7.63;;
32250;SDS011;41295;48.518;9.206;2023-08-24T06:36:32;10.00;;;7.80;;
32250;SDS011;41295;48.518;9.206;2023-08-24T06:38:36;15.02;;;8.10;;
32250;SDS011;41295;48.518;9.206;2023-08-24T06:40:39;8.90;;;8.00;;
32250;SDS011;41295;48.518;9.206;2023-08-24T06:42:41;11.13;;;7.90;;
32250;SDS011;41295;48.518;9.206;2023-08-24T06:44:44;12.30;;;7.82;;
32250;SDS011;41295;48.518;9.206;2023-08-24T06:46:47;13.77;;;7.82;;
32250;SDS011;41295;48.518;9.206;2023-08-24T06:48:49;13.57;;;8.00;;
32250;SDS011;41295;48.518;9.206;2023-08-24T06:50:52;13.88;;;7.53;;
32250;SDS011;41295;48.518;9.206;2023-08-24T06:52:55;12.13;;;7.18;;
32250;SDS011;41295;48.518;9.206;2023-08-24T06:54:59;14.27;;;7.63;;
32250;SDS011;41295;48.518;9.206;2023-08-24T06:57:00;13.88;;;6.75;;
32250;SDS011;41295;48.518;9.206;2023-08-24T06:59:04;12.48;;;7.82;;
32250;SDS011;41295;48.518;9.206;2023-08-24T07:01:07;11.80;;;7.75;;
32250;SDS011;41295;48.518;9.206;2023-08-24T07:03:09;12.13;;;7.68;;
32250;SDS011;41295;48.518;9.206;2023-08-24T07:05:12;10.80;;;6.85;;
32250;SDS011;41295;48.518;9.206;2023-08-24T07:07:15;12.48;;;7.22;;
32250;SDS011;41295;48.518;9.206;2023-08-24T07:09:18;10.95;;;7.03;;
32250;SDS011;41295;48.518;9.206;2023-08-24T07:11:23;12.80;;;7.25;;
32250;SDS011;41295;48.518;9.206;2023-08-24T07:13:27;12.65;;;7.43;;
32250;SDS011;41295;48.518;9.206;2023-08-24T07:15:29;13.57;;;7.13;;
32250;SDS011;41295;48.518;9.206;2023-08-24T07:17:31;12.93;;;7.22;;
32250;SDS011;41295;48.518;9.206;2023-08-24T07:19:34;13.65;;;7.53;;
32250;SDS011;41295;48.518;9.206;2023-08-24T07:21:37;9.88;;;7.25;;
32250;SDS011;41295;48.518;9.206;2023-08-24T07:23:39;16.70;;;7.80;;
32250;SDS011;41295;48.518;9.206;2023-08-24T07:25:42;10.80;;;6.72;;
32250;SDS011;41295;48.518;9.206;2023-08-24T07:27:48;15.18;;;6.68;;
32250;SDS011;41295;48.518;9.206;2023-08-24T07:29:51;10.18;;;6.90;;
32250;SDS011;41295;48.518;9.206;2023-08-24T07:31:54;16.65;;;7.32;;
32250;SDS011;41295;48.518;9.206;2023-08-24T07:33:57;15.95;;;6.70;;
32250;SDS011;41295;48.518;9.206;2023-08-24T07:35:59;13.23;;;7.13;;
32250;SDS011;41295;48.518;9.206;2023-08-24T07:38:05;11.18;;;7.00;;
32250;SDS011;41295;48.518;9.206;2023-08-24T07:40:08;10.68;;;6.90;;
32250;SDS011;41295;48.518;9.206;2023-08-24T07:42:11;12.70;;;6.70;;
32250;SDS011;41295;48.518;9.206;2023-08-24T07:44:15;8.68;;;6.57;;
32250;SDS011;41295;48.518;9.206;2023-08-24T07:46:18;8.05;;;6.65;;
32250;SDS011;41295;48.518;9.206;2023-08-24T07:48:20;10.73;;;6.72;;
32250;SDS011;41295;48.518;9.206;2023-08-24T07:50:23;8.02;;;6.88;;
32250;SDS011;41295;48.518;9.206;2023-08-24T07:52:26;10.43;;;6.50;;
32250;SDS011;41295;48.518;9.206;2023-08-24T07:54:30;11.02;;;7.40;;
32250;SDS011;41295;48.518;9.206;2023-08-24T07:56:32;12.10;;;6.82;;
32250;SDS011;41295;48.518;9.206;2023-08-24T07:58:35;13.18;;;6.80;;
32250;SDS011;41295;48.518;9.206;2023-08-24T08:00:39;12.73;;;6.22;;
32250;SDS011;41295;48.518;9.206;2023-08-24T08:02:42;15.07;;;7.25;;
32250;SDS011;41295;48.518;9.206;2023-08-24T08:04:45;9.45;;;7.30;;
32250;SDS011;41295;48.518;9.206;2023-08-24T08:06:48;15.40;;;7.82;;
32250;SDS011;41295;48.518;9.206;2023-08-24T08:08:50;9.02;;;6.78;;
32250;SDS011;41295;48.518;9.206;2023-08-24T08:11:00;11.90;;;7.40;;
32250;SDS011;41295;48.518;9.206;2023-08-24T08:13:03;9.43;;;6.85;;
32250;SDS011;41295;48.518;9.206;2023-08-24T08:15:06;10.98;;;7.05;;
32250;SDS011;41295;48.518;9.206;2023-08-24T08:17:11;10.82;;;6.68;;
32250;SDS011;41295;48.518;9.206;2023-08-24T08:19:14;8.45;;;6.65;;
32250;SDS011;41295;48.518;9.206;2023-08-24T08:21:17;13.02;;;6.80;;
32250;SDS011;41295;48.518;9.206;2023-08-24T08:23:23;8.43;;;6.13;;
32250;SDS011;41295;48.518;9.206;2023-08-24T08:25:27;8.52;;;6.55;;
32250;SDS011;41295;48.518;9.206;2023-08-24T08:27:32;13.25;;;7.18;;
32250;SDS011;41295;48.518;9.206;2023-08-24T08:29:35;13.80;;;6.80;;
32250;SDS011;41295;48.518;9.206;2023-08-24T08:31:37;14.93;;;7.72;;
32250;SDS011;41295;48.518;9.206;2023-08-24T08:33:41;8.65;;;5.82;;
32250;SDS011;41295;48.518;9.206;2023-08-24T08:35:43;9.45;;;6.80;;
32250;SDS011;41295;48.518;9.206;2023-08-24T08:37:46;13.32;;;6.38;;
32250;SDS011;41295;48.518;9.206;2023-08-24T08:39:51;10.82;;;6.50;;
32250;SDS011;41295;48.518;9.206;2023-08-24T08:41:53;11.25;;;7.10;;
32250;SDS011;41295;48.518;9.206;2023-08-24T08:44:04;11.35;;;6.40;;
32250;SDS011;41295;48.518;9.206;2023-08-24T08:46:07;13.02;;;6.78;;
32250;SDS011;41295;48.518;9.206;2023-08-24T08:48:10;8.05;;;5.95;;
32250;SDS011;41295;48.518;9.206;2023-08-24T08:50:15;10.55;;;6.03;;
32250;SDS011;41295;48.518;9.206;2023-08-24T08:52:18;9.45;;;6.70;;
32250;SDS011;41295;48.518;9.206;2023-08-24T08:54:21;15.88;;;7.20;;
32250;SDS011;41295;48.518;9.206;2023-08-24T08:56:23;10.35;;;6.53;;
32250;SDS011;41295;48.518;9.206;2023-08-24T08:58:26;10.65;;;6.70;;
32250;SDS011;41295;48.518;9.206;2023-08-24T09:00:30;10.45;;;7.22;;
32250;SDS011;41295;48.518;9.206;2023-08-24T09:02:33;9.43;;;6.25;;
32250;SDS011;41295;48.518;9.206;2023-08-24T09:04:36;11.93;;;6.10;;
32250;SDS011;41295;48.518;9.206;2023-08-24T09:06:41;9.85;;;6.25;;
32250;SDS011;41295;48.518;9.206;2023-08-24T09:08:45;8.95;;;6.25;;
32250;SDS011;41295;48.518;9.206;2023-08-24T09:10:47;12.13;;;6.53;;
32250;SDS011;41295;48.518;9.206;2023-08-24T09:12:50;13.82;;;6.88;;
32250;SDS011;41295;48.518;9.206;2023-08-24T09:14:53;14.13;;;7.20;;
32250;SDS011;41295;48.518;9.206;2023-08-24T09:16:56;9.98;;;6.18;;
32250;SDS011;41295;48.518;9.206;2023-08-24T09:18:58;12.50;;;6.15;;
32250;SDS011;41295;48.518;9.206;2023-08-24T09:21:07;10.15;;;5.70;;
32250;SDS011;41295;48.518;9.206;2023-08-24T09:23:18;8.65;;;5.60;;
32250;SDS011;41295;48.518;9.206;2023-08-24T09:25:22;7.43;;;5.88;;
32250;SDS011;41295;48.518;9.206;2023-08-24T09:27:24;7.45;;;5.50;;
32250;SDS011;41295;48.518;9.206;2023-08-24T09:29:26;10.50;;;6.22;;
32250;SDS011;41295;48.518;9.206;2023-08-24T09:31:34;8.27;;;5.93;;
32250;SDS011;41295;48.518;9.206;2023-08-24T09:33:38;11.93;;;6.75;;
32250;SDS011;41295;48.518;9.206;2023-08-24T09:35:40;12.45;;;6.10;;
32250;SDS011;41295;48.518;9.206;2023-08-24T09:37:43;8.70;;;6.30;;
32250;SDS011;41295;48.518;9.206;2023-08-24T09:39:48;12.00;;;6.07;;
32250;SDS011;41295;48.518;9.206;2023-08-24T09:41:51;11.95;;;6.60;;
32250;SDS011;41295;48.518;9.206;2023-08-24T09:43:54;8.00;;;5.85;;
32250;SDS011;41295;48.518;9.206;2023-08-24T09:45:56;7.68;;;5.82;;
32250;SDS011;41295;48.518;9.206;2023-08-24T09:48:00;16.70;;;6.68;;
32250;SDS011;41295;48.518;9.206;2023-08-24T09:50:02;7.78;;;6.32;;
32250;SDS011;41295;48.518;9.206;2023-08-24T09:52:06;14.43;;;6.05;;
32250;SDS011;41295;48.518;9.206;2023-08-24T09:54:09;9.65;;;5.85;;
32250;SDS011;41295;48.518;9.206;2023-08-24T09:56:15;10.30;;;6.22;;
32250;SDS011;41295;48.518;9.206;2023-08-24T09:58:18;10.48;;;6.50;;
32250;SDS011;41295;48.518;9.206;2023-08-24T10:00:21;15.40;;;6.75;;
32250;SDS011;41295;48.518;9.206;2023-08-24T10:02:26;12.48;;;6.20;;
32250;SDS011;41295;48.518;9.206;2023-08-24T10:04:37;12.63;;;5.68;;
32250;SDS011;41295;48.518;9.206;2023-08-24T10:06:42;11.50;;;6.00;;
32250;SDS011;41295;48.518;9.206;2023-08-24T10:08:50;10.20;;;6.00;;
32250;SDS011;41295;48.518;9.206;2023-08-24T10:10:56;14.85;;;6.13;;
32250;SDS011;41295;48.518;9.206;2023-08-24T10:13:04;12.40;;;6.25;;
32250;SDS011;41295;48.518;9.206;2023-08-24T10:15:10;9.45;;;5.85;;
32250;SDS011;41295;48.518;9.206;2023-08-24T10:17:14;8.90;;;5.85;;
32250;SDS011;41295;48.518;9.206;2023-08-24T10:19:18;8.05;;;5.53;;
32250;SDS011;41295;48.518;9.206;2023-08-24T10:21:26;10.13;;;5.85;;
32250;SDS011;41295;48.518;9.206;2023-08-24T10:23:30;14.73;;;6.28;;
32250;SDS011;41295;48.518;9.206;2023-08-24T10:25:34;9.57;;;6.00;;
32250;SDS011;41295;48.518;9.206;2023-08-24T10:27:39;9.45;;;6.03;;
32250;SDS011;41295;48.518;9.206;2023-08-24T10:29:45;11.43;;;6.28;;
32250;SDS011;41295;48.518;9.206;2023-08-24T10:31:48;10.27;;;6.38;;
32250;SDS011;41295;48.518;9.206;2023-08-24T10:33:52;13.90;;;6.05;;
32250;SDS011;41295;48.518;9.206;2023-08-24T10:35:57;8.05;;;5.90;;
32250;SDS011;41295;48.518;9.206;2023-08-24T10:38:00;10.40;;;6.15;;
32250;SDS011;41295;48.518;9.206;2023-08-24T10:40:02;9.52;;;5.90;;
32250;SDS011;41295;48.518;9.206;2023-08-24T10:42:07;11.63;;;6.15;;
32250;SDS011;41295;48.518;9.206;2023-08-24T10:44:19;13.40;;;5.82;;
32250;SDS011;41295;48.518;9.206;2023-08-24T10:46:24;10.38;;;6.03;;
32250;SDS011;41295;48.518;9.206;2023-08-24T10:48:28;15.65;;;5.95;;
32250;SDS011;41295;48.518;9.206;2023-08-24T10:50:30;14.82;;;6.32;;
32250;SDS011;41295;48.518;9.206;2023-08-24T10:52:34;7.32;;;6.05;;
32250;SDS011;41295;48.518;9.206;2023-08-24T10:54:41;7.72;;;5.78;;
32250;SDS011;41295;48.518;9.206;2023-08-24T10:56:52;11.40;;;6.10;;
32250;SDS011;41295;48.518;9.206;2023-08-24T10:59:09;10.55;;;5.85;;
32250;SDS011;41295;48.518;9.206;2023-08-24T11:01:16;7.90;;;5.53;;
32250;SDS011;41295;48.518;9.206;2023-08-24T11:03:31;10.07;;;6.53;;
32250;SDS011;41295;48.518;9.206;2023-08-24T11:05:34;8.90;;;6.40;;
32250;SDS011;41295;48.518;9.206;2023-08-24T11:07:47;10.57;;;6.18;;
32250;SDS011;41295;48.518;9.206;2023-08-24T11:09:49;7.78;;;6.32;;
32250;SDS011;41295;48.518;9.206;2023-08-24T11:11:55;9.95;;;6.55;;
32250;SDS011;41295;48.518;9.206;2023-08-24T11:14:14;6.60;;;5.80;;
32250;SDS011;41295;48.518;9.206;2023-08-24T11:18:43;7.85;;;6.22;;
32250;SDS011;41295;48.518;9.206;2023-08-24T11:20:47;13.85;;;6.15;;
32250;SDS011;41295;48.518;9.206;2023-08-24T11:22:50;10.00;;;6.50;;
32250;SDS011;41295;48.518;9.206;2023-08-24T11:24:57;10.32;;;6.50;;
32250;SDS011;41295;48.518;9.206;2023-08-24T11:27:00;12.77;;;6.57;;
32250;SDS011;41295;48.518;9.206;2023-08-24T11:29:05;9.63;;;6.40;;
32250;SDS011;41295;48.518;9.206;2023-08-24T11:31:08;11.98;;;6.82;;
32250;SDS011;41295;48.518;9.206;2023-08-24T11:33:11;11.85;;;6.85;;
32250;SDS011;41295;48.518;9.206;2023-08-24T11:35:19;9.63;;;6.88;;
32250;SDS011;41295;48.518;9.206;2023-08-24T11:37:25;9.93;;;6.45;;
32250;SDS011;41295;48.518;9.206;2023-08-24T11:39:28;10.73;;;6.50;;
32250;SDS011;41295;48.518;9.206;2023-08-24T11:41:33;10.38;;;6.97;;
32250;SDS011;41295;48.518;9.206;2023-08-24T11:43:35;11.98;;;6.55;;
32250;SDS011;41295;48.518;9.206;2023-08-24T11:45:37;12.23;;;6.55;;
32250;SDS011;41295;48.518;9.206;2023-08-24T11:47:42;14.32;;;7.05;;
32250;SDS011;41295;48.518;9.206;2023-08-24T11:49:44;12.35;;;7.05;;
32250;SDS011;41295;48.518;9.206;2023-08-24T11:51:48;13.93;;;6.68;;
32250;SDS011;41295;48.518;9.206;2023-08-24T11:53:52;10.13;;;7.18;;
32250;SDS011;41295;48.518;9.206;2023-08-24T11:55:54;14.07;;;7.00;;
32250;SDS011;41295;48.518;9.206;2023-08-24T11:58:13;13.45;;;7.07;;
32250;SDS011;41295;48.518;9.206;2023-08-24T12:00:16;9.20;;;6.65;;
32250;SDS011;41295;48.518;9.206;2023-08-24T12:02:20;11.40;;;6.95;;
32250;SDS011;41295;48.518;9.206;2023-08-24T12:04:24;13.52;;;6.75;;
32250;SDS011;41295;48.518;9.206;2023-08-24T12:06:27;14.48;;;6.43;;
32250;SDS011;41295;48.518;9.206;2023-08-24T12:08:31;9.63;;;6.43;;
32250;SDS011;41295;48.518;9.206;2023-08-24T12:10:43;13.88;;;6.78;;
32250;SDS011;41295;48.518;9.206;2023-08-24T12:12:46;10.60;;;6.20;;
32250;SDS011;41295;48.518;9.206;2023-08-24T12:14:49;13.82;;;6.53;;
32250;SDS011;41295;48.518;9.206;2023-08-24T12:16:51;13.88;;;6.85;;
32250;SDS011;41295;48.518;9.206;2023-08-24T12:18:55;14.35;;;7.10;;
32250;SDS011;41295;48.518;9.206;2023-08-24T12:20:59;10.98;;;7.10;;